sensor_id;sensor_type;location;lat;lon;timestamp;pressure;altitude;pressure_sealevel;temperature;humidity
34925;BME280;21130;51.728;8.748;2023-05-23T00:01:57;100309.47;;;13.93;100.00
34925;BME280;21130;51.728;8.748;2023-05-23T00:04:24;100318.66;;;13.88;100.00
34925;BME280;21130;51.728;8.748;2023-05-23T00:06:51;100316.97;;;13.82;100.00
34925;BME280;21130;51.728;8.748;2023-05-23T00:09:19;100316.34;;;13.75;100.00
34925;BME280;21130;51.728;8.748;2023-05-23T00:11:46;100319.63;;;13.67;100.00
34925;BME280;21130;51.728;8.748;2023-05-23T00:14:14;100315.44;;;13.64;100.00
34925;BME280;21130;51.728;8.748;2023-05-23T00:16:41;100326.88;;;13.63;100.00
34925;BME280;21130;51.728;8.748;2023-05-23T00:19:09;100318.19;;;13.59;100.00
34925;BME280;21130;51.728;8.748;2023-05-23T00:21:36;100320.75;;;13.66;100.00
34925;BME280;21130;51.728;8.748;2023-05-23T00:24:02;100324.34;;;13.61;100.00
34925;BME280;21130;51.728;8.748;2023-05-23T00:26:31;100319.09;;;13.65;100.00
34925;BME280;21130;51.728;8.748;2023-05-23T00:28:58;100318.75;;;13.56;100.00
34925;BME280;21130;51.728;8.748;2023-05-23T00:31:25;100322.06;;;13.53;100.00
34925;BME280;21130;51.728;8.748;2023-05-23T00:33:51;100324.63;;;13.54;100.00
34925;BME280;21130;51.728;8.748;2023-05-23T00:36:18;100322.91;;;13.53;100.00
34925;BME280;21130;51.728;8.748;2023-05-23T00:38:46;100322.88;;;13.48;100.00
34925;BME280;21130;51.728;8.748;2023-05-23T00:41:13;100325.66;;;13.48;100.00
34925;BME280;21130;51.728;8.748;2023-05-23T00:43:41;100325.66;;;13.48;100.00
34925;BME280;21130;51.728;8.748;2023-05-23T00:46:08;100324.00;;;13.47;100.00
34925;BME280;21130;51.728;8.748;2023-05-23T00:48:36;100322.03;;;13.48;100.00
34925;BME280;21130;51.728;8.748;2023-05-23T00:51:03;100321.78;;;13.49;100.00
34925;BME280;21130;51.728;8.748;2023-05-23T00:53:30;100321.50;;;13.51;100.00
34925;BME280;21130;51.728;8.748;2023-05-23T00:55:56;100320.69;;;13.55;100.00
34925;BME280;21130;51.728;8.748;2023-05-23T00:58:23;100318.50;;;13.57;100.00
34925;BME280;21130;51.728;8.748;2023-05-23T01:00:51;100326.03;;;13.57;100.00
34925;BME280;21130;51.728;8.748;2023-05-23T01:03:19;100327.41;;;13.54;100.00
34925;BME280;21130;51.728;8.748;2023-05-23T01:05:45;100337.44;;;13.55;100.00
34925;BME280;21130;51.728;8.748;2023-05-23T01:08:12;100332.13;;;13.59;100.00
34925;BME280;21130;51.728;8.748;2023-05-23T01:10:40;100341.88;;;13.56;100.00
34925;BME280;21130;51.728;8.748;2023-05-23T01:13:15;100335.78;;;13.59;100.00
34925;BME280;21130;51.728;8.748;2023-05-23T01:15:49;100334.66;;;13.60;100.00
34925;BME280;21130;51.728;8.748;2023-05-23T01:18:23;100338.59;;;13.59;100.00
34925;BME280;21130;51.728;8.748;2023-05-23T01:20:54;100331.34;;;13.64;100.00
34925;BME280;21130;51.728;8.748;2023-05-23T01:23:35;100340.28;;;13.66;100.00
34925;BME280;21130;51.728;8.748;2023-05-23T01:26:17;100335.81;;;13.65;100.00
34925;BME280;21130;51.728;8.748;2023-05-23T01:28:49;100338.03;;;13.63;100.00
34925;BME280;21130;51.728;8.748;2023-05-23T01:31:17;100344.13;;;13.54;100.00
34925;BME280;21130;51.728;8.748;2023-05-23T01:33:45;100330.72;;;13.56;100.00
34925;BME280;21130;51.728;8.748;2023-05-23T01:36:12;100321.81;;;13.54;100.00
34925;BME280;21130;51.728;8.748;2023-05-23T01:38:39;100338.53;;;13.49;100.00
34925;BME280;21130;51.728;8.748;2023-05-23T01:41:05;100332.84;;;13.39;100.00
34925;BME280;21130;51.728;8.748;2023-05-23T01:43:32;100339.56;;;13.43;100.00
34925;BME280;21130;51.728;8.748;2023-05-23T01:46:00;100337.03;;;13.42;100.00
34925;BME280;21130;51.728;8.748;2023-05-23T01:48:28;100335.91;;;13.37;100.00
34925;BME280;21130;51.728;8.748;2023-05-23T01:50:54;100346.22;;;13.37;100.00
34925;BME280;21130;51.728;8.748;2023-05-23T01:53:22;100339.50;;;13.33;100.00
34925;BME280;21130;51.728;8.748;2023-05-23T01:55:50;100335.31;;;13.30;100.00
34925;BME280;21130;51.728;8.748;2023-05-23T01:58:17;100345.53;;;13.25;100.00
34925;BME280;21130;51.728;8.748;2023-05-23T02:00:44;100338.84;;;13.26;100.00
34925;BME280;21130;51.728;8.748;2023-05-23T02:03:12;100347.72;;;13.17;100.00
34925;BME280;21130;51.728;8.748;2023-05-23T02:05:39;100343.16;;;13.06;100.00
34925;BME280;21130;51.728;8.748;2023-05-23T02:08:05;100347.00;;;13.00;100.00
34925;BME280;21130;51.728;8.748;2023-05-23T02:10:32;100345.59;;;12.97;100.00
34925;BME280;21130;51.728;8.748;2023-05-23T02:12:58;100353.63;;;12.94;100.00
34925;BME280;21130;51.728;8.748;2023-05-23T02:15:25;100347.50;;;12.92;100.00
34925;BME280;21130;51.728;8.748;2023-05-23T02:18:19;100352.16;;;12.86;100.00
34925;BME280;21130;51.728;8.748;2023-05-23T02:20:45;100353.47;;;12.79;100.00
34925;BME280;21130;51.728;8.748;2023-05-23T02:23:12;100350.69;;;12.79;100.00
34925;BME280;21130;51.728;8.748;2023-05-23T02:25:38;100360.69;;;12.74;100.00
34925;BME280;21130;51.728;8.748;2023-05-23T02:28:05;100360.69;;;12.74;100.00
34925;BME280;21130;51.728;8.748;2023-05-23T02:30:31;100357.84;;;12.69;100.00
34925;BME280;21130;51.728;8.748;2023-05-23T02:32:57;100366.16;;;12.64;100.00
34925;BME280;21130;51.728;8.748;2023-05-23T02:35:25;100367.19;;;12.58;100.00
34925;BME280;21130;51.728;8.748;2023-05-23T02:37:52;100364.94;;;12.55;100.00
34925;BME280;21130;51.728;8.748;2023-05-23T02:40:18;100371.63;;;12.54;100.00
34925;BME280;21130;51.728;8.748;2023-05-23T02:42:44;100367.66;;;12.50;100.00
34925;BME280;21130;51.728;8.748;2023-05-23T02:45:11;100376.84;;;12.50;100.00
34925;BME280;21130;51.728;8.748;2023-05-23T02:47:37;100370.41;;;12.45;100.00
34925;BME280;21130;51.728;8.748;2023-05-23T02:50:05;100377.56;;;12.41;100.00
34925;BME280;21130;51.728;8.748;2023-05-23T02:52:33;100373.69;;;12.42;100.00
34925;BME280;21130;51.728;8.748;2023-05-23T02:54:59;100379.28;;;12.42;100.00
34925;BME280;21130;51.728;8.748;2023-05-23T02:57:26;100376.97;;;12.39;100.00
34925;BME280;21130;51.728;8.748;2023-05-23T02:59:52;100371.16;;;12.40;100.00
34925;BME280;21130;51.728;8.748;2023-05-23T03:02:19;100380.63;;;12.39;100.00
34925;BME280;21130;51.728;8.748;2023-05-23T03:04:45;100375.06;;;12.39;100.00
34925;BME280;21130;51.728;8.748;2023-05-23T03:07:12;100376.94;;;12.33;100.00
34925;BME280;21130;51.728;8.748;2023-05-23T03:09:40;100376.38;;;12.31;100.00
34925;BME280;21130;51.728;8.748;2023-05-23T03:12:08;100374.59;;;12.25;100.00
34925;BME280;21130;51.728;8.748;2023-05-23T03:14:35;100378.50;;;12.24;100.00
34925;BME280;21130;51.728;8.748;2023-05-23T03:17:01;100375.97;;;12.23;100.00
34925;BME280;21130;51.728;8.748;2023-05-23T03:19:29;100385.91;;;12.19;100.00
34925;BME280;21130;51.728;8.748;2023-05-23T03:21:55;100377.03;;;12.17;100.00
34925;BME280;21130;51.728;8.748;2023-05-23T03:24:22;100379.72;;;12.12;100.00
34925;BME280;21130;51.728;8.748;2023-05-23T03:26:50;100383.59;;;12.10;100.00
34925;BME280;21130;51.728;8.748;2023-05-23T03:29:16;100380.81;;;12.10;100.00
34925;BME280;21130;51.728;8.748;2023-05-23T03:31:42;100383.28;;;12.07;100.00
34925;BME280;21130;51.728;8.748;2023-05-23T03:34:09;100377.72;;;12.07;100.00
34925;BME280;21130;51.728;8.748;2023-05-23T03:36:37;100390.19;;;12.04;100.00
34925;BME280;21130;51.728;8.748;2023-05-23T03:39:04;100394.66;;;12.05;100.00
34925;BME280;21130;51.728;8.748;2023-05-23T03:41:30;100393.22;;;12.03;100.00
34925;BME280;21130;51.728;8.748;2023-05-23T03:43:58;100393.22;;;12.03;100.00
34925;BME280;21130;51.728;8.748;2023-05-23T03:46:25;100385.16;;;12.01;100.00
34925;BME280;21130;51.728;8.748;2023-05-23T03:48:52;100390.19;;;12.04;100.00
34925;BME280;21130;51.728;8.748;2023-05-23T03:51:18;100390.38;;;11.98;100.00
34925;BME280;21130;51.728;8.748;2023-05-23T03:53:45;100389.88;;;12.01;100.00
34925;BME280;21130;51.728;8.748;2023-05-23T03:56:11;100393.75;;;12.00;100.00
34925;BME280;21130;51.728;8.748;2023-05-23T03:58:38;100398.47;;;11.99;100.00
34925;BME280;21130;51.728;8.748;2023-05-23T04:01:05;100393.22;;;12.03;100.00
34925;BME280;21130;51.728;8.748;2023-05-23T04:03:33;100398.22;;;12.01;100.00
34925;BME280;21130;51.728;8.748;2023-05-23T04:06:00;100398.28;;;12.06;100.00
34925;BME280;21130;51.728;8.748;2023-05-23T04:08:26;100388.25;;;12.05;100.00
34925;BME280;21130;51.728;8.748;2023-05-23T04:10:53;100395.78;;;12.04;100.00
34925;BME280;21130;51.728;8.748;2023-05-23T04:13:19;100394.41;;;12.07;100.00
34925;BME280;21130;51.728;8.748;2023-05-23T04:15:47;100402.75;;;12.07;100.00
34925;BME280;21130;51.728;8.748;2023-05-23T04:18:15;100398.88;;;12.08;100.00
34925;BME280;21130;51.728;8.748;2023-05-23T04:20:42;100396.09;;;12.08;100.00
34925;BME280;21130;51.728;8.748;2023-05-23T04:23:08;100402.81;;;12.12;100.00
34925;BME280;21130;51.728;8.748;2023-05-23T04:25:35;100399.44;;;12.10;100.00
34925;BME280;21130;51.728;8.748;2023-05-23T04:28:01;100408.31;;;12.07;100.00
34925;BME280;21130;51.728;8.748;2023-05-23T04:30:29;100406.13;;;12.09;100.00
34925;BME280;21130;51.728;8.748;2023-05-23T04:32:55;100401.13;;;12.11;100.00
34925;BME280;21130;51.728;8.748;2023-05-23T04:35:25;100405.84;;;12.10;100.00
34925;BME280;21130;51.728;8.748;2023-05-23T04:37:52;100403.84;;;12.06;100.00
34925;BME280;21130;51.728;8.748;2023-05-23T04:40:21;100397.19;;;12.07;100.00
34925;BME280;21130;51.728;8.748;2023-05-23T04:42:47;100400.75;;;12.02;100.00
34925;BME280;21130;51.728;8.748;2023-05-23T04:45:14;100408.56;;;12.05;100.00
34925;BME280;21130;51.728;8.748;2023-05-23T04:47:40;100404.34;;;12.03;100.00
34925;BME280;21130;51.728;8.748;2023-05-23T04:50:09;100406.53;;;12.01;100.00
34925;BME280;21130;51.728;8.748;2023-05-23T04:52:37;100409.91;;;12.03;100.00
34925;BME280;21130;51.728;8.748;2023-05-23T04:55:04;100407.13;;;12.03;100.00
34925;BME280;21130;51.728;8.748;2023-05-23T04:57:30;100409.41;;;12.06;100.00
34925;BME280;21130;51.728;8.748;2023-05-23T04:59:57;100410.59;;;12.10;100.00
34925;BME280;21130;51.728;8.748;2023-05-23T05:02:25;100408.91;;;12.09;100.00
34925;BME280;21130;51.728;8.748;2023-05-23T05:04:52;100410.00;;;12.08;100.00
34925;BME280;21130;51.728;8.748;2023-05-23T05:07:18;100413.38;;;12.10;100.00
34925;BME280;21130;51.728;8.748;2023-05-23T05:09:53;100422.03;;;12.14;100.00
34925;BME280;21130;51.728;8.748;2023-05-23T05:12:20;100416.47;;;12.14;100.00
34925;BME280;21130;51.728;8.748;2023-05-23T05:14:46;100425.16;;;12.17;100.00
34925;BME280;21130;51.728;8.748;2023-05-23T05:17:13;100415.97;;;12.17;100.00
34925;BME280;21130;51.728;8.748;2023-05-23T05:19:40;100423.19;;;12.18;100.00
34925;BME280;21130;51.728;8.748;2023-05-23T05:22:06;100417.94;;;12.21;100.00
34925;BME280;21130;51.728;8.748;2023-05-23T05:24:33;100424.03;;;12.18;100.00
34925;BME280;21130;51.728;8.748;2023-05-23T05:27:01;100421.59;;;12.22;100.00
34925;BME280;21130;51.728;8.748;2023-05-23T05:29:27;100421.84;;;12.20;100.00
34925;BME280;21130;51.728;8.748;2023-05-23T05:31:54;100415.16;;;12.21;100.00
34925;BME280;21130;51.728;8.748;2023-05-23T05:34:20;100418.22;;;12.20;100.00
34925;BME280;21130;51.728;8.748;2023-05-23T05:36:47;100419.66;;;12.22;100.00
34925;BME280;21130;51.728;8.748;2023-05-23T05:39:14;100419.66;;;12.22;100.00
34925;BME280;21130;51.728;8.748;2023-05-23T05:41:40;100415.25;;;12.26;100.00
34925;BME280;21130;51.728;8.748;2023-05-23T05:44:08;100422.25;;;12.29;100.00
34925;BME280;21130;51.728;8.748;2023-05-23T05:46:35;100428.06;;;12.27;100.00
34925;BME280;21130;51.728;8.748;2023-05-23T05:49:01;100421.97;;;12.30;100.00
34925;BME280;21130;51.728;8.748;2023-05-23T05:51:28;100420.56;;;12.28;100.00
34925;BME280;21130;51.728;8.748;2023-05-23T05:53:55;100429.56;;;12.35;100.00
34925;BME280;21130;51.728;8.748;2023-05-23T05:56:22;100433.75;;;12.38;100.00
34925;BME280;21130;51.728;8.748;2023-05-23T05:58:48;100428.19;;;12.38;100.00
34925;BME280;21130;51.728;8.748;2023-05-23T06:01:16;100433.25;;;12.41;100.00
34925;BME280;21130;51.728;8.748;2023-05-23T06:03:43;100433.81;;;12.43;100.00
34925;BME280;21130;51.728;8.748;2023-05-23T06:06:09;100436.09;;;12.46;100.00
34925;BME280;21130;51.728;8.748;2023-05-23T06:08:36;100433.56;;;12.44;100.00
34925;BME280;21130;51.728;8.748;2023-05-23T06:11:02;100442.19;;;12.43;100.00
34925;BME280;21130;51.728;8.748;2023-05-23T06:13:29;100432.72;;;12.44;100.00
34925;BME280;21130;51.728;8.748;2023-05-23T06:15:55;100448.97;;;12.52;100.00
34925;BME280;21130;51.728;8.748;2023-05-23T06:18:25;100449.75;;;12.47;100.00
34925;BME280;21130;51.728;8.748;2023-05-23T06:20:52;100441.16;;;12.49;100.00
34925;BME280;21130;51.728;8.748;2023-05-23T06:23:18;100445.78;;;12.43;100.00
34925;BME280;21130;51.728;8.748;2023-05-23T06:25:45;100442.19;;;12.43;100.00
34925;BME280;21130;51.728;8.748;2023-05-23T06:28:11;100444.72;;;12.44;100.00
34925;BME280;21130;51.728;8.748;2023-05-23T06:30:38;100447.22;;;12.46;100.00
34925;BME280;21130;51.728;8.748;2023-05-23T06:33:04;100463.44;;;12.49;100.00
34925;BME280;21130;51.728;8.748;2023-05-23T06:35:32;100445.53;;;12.45;100.00
34925;BME280;21130;51.728;8.748;2023-05-23T06:37:58;100448.34;;;12.45;100.00
34925;BME280;21130;51.728;8.748;2023-05-23T06:40:25;100457.50;;;12.45;100.00
34925;BME280;21130;51.728;8.748;2023-05-23T06:42:51;100454.97;;;12.44;100.00
34925;BME280;21130;51.728;8.748;2023-05-23T06:45:18;100457.69;;;12.39;100.00
34925;BME280;21130;51.728;8.748;2023-05-23T06:47:44;100459.06;;;12.36;100.00
34925;BME280;21130;51.728;8.748;2023-05-23T06:50:12;100460.94;;;12.30;100.00
34925;BME280;21130;51.728;8.748;2023-05-23T06:52:40;100454.28;;;12.31;100.00
34925;BME280;21130;51.728;8.748;2023-05-23T06:55:08;100465.34;;;12.26;100.00
34925;BME280;21130;51.728;8.748;2023-05-23T06:57:38;100461.22;;;12.29;100.00
34925;BME280;21130;51.728;8.748;2023-05-23T07:00:06;100472.59;;;12.27;100.00
34925;BME280;21130;51.728;8.748;2023-05-23T07:02:32;100481.00;;;12.32;100.00
34925;BME280;21130;51.728;8.748;2023-05-23T07:04:59;100473.78;;;12.31;100.00
34925;BME280;21130;51.728;8.748;2023-05-23T07:07:25;100482.44;;;12.35;100.00
34925;BME280;21130;51.728;8.748;2023-05-23T07:09:53;100474.84;;;12.30;100.00
34925;BME280;21130;51.728;8.748;2023-05-23T07:12:19;100495.44;;;12.29;100.00
34925;BME280;21130;51.728;8.748;2023-05-23T07:14:46;100482.03;;;12.26;100.00
34925;BME280;21130;51.728;8.748;2023-05-23T07:17:13;100489.03;;;12.29;100.00
34925;BME280;21130;51.728;8.748;2023-05-23T07:19:40;100495.09;;;12.26;100.00
34925;BME280;21130;51.728;8.748;2023-05-23T07:22:06;100498.16;;;12.24;100.00
34925;BME280;21130;51.728;8.748;2023-05-23T07:24:33;100493.00;;;12.16;100.00
34925;BME280;21130;51.728;8.748;2023-05-23T07:27:02;100501.88;;;12.13;100.00
34925;BME280;21130;51.728;8.748;2023-05-23T07:29:29;100501.03;;;12.13;100.00
34925;BME280;21130;51.728;8.748;2023-05-23T07:31:55;100505.09;;;12.05;100.00
34925;BME280;21130;51.728;8.748;2023-05-23T07:34:23;100505.00;;;12.00;100.00
34925;BME280;21130;51.728;8.748;2023-05-23T07:36:51;100501.63;;;11.98;100.00
34925;BME280;21130;51.728;8.748;2023-05-23T07:39:17;100517.25;;;11.99;100.00
34925;BME280;21130;51.728;8.748;2023-05-23T07:41:46;100515.47;;;11.93;100.00
34925;BME280;21130;51.728;8.748;2023-05-23T07:44:14;100513.78;;;11.92;100.00
34925;BME280;21130;51.728;8.748;2023-05-23T07:46:41;100519.28;;;11.86;100.00
34925;BME280;21130;51.728;8.748;2023-05-23T07:49:07;100539.78;;;11.85;100.00
34925;BME280;21130;51.728;8.748;2023-05-23T07:51:34;100538.03;;;11.79;100.00
34925;BME280;21130;51.728;8.748;2023-05-23T07:54:01;100536.09;;;11.80;100.00
34925;BME280;21130;51.728;8.748;2023-05-23T07:56:28;100538.78;;;11.75;100.00
34925;BME280;21130;51.728;8.748;2023-05-23T07:58:55;100549.81;;;11.70;100.00
34925;BME280;21130;51.728;8.748;2023-05-23T08:01:23;100546.09;;;11.64;100.00
34925;BME280;21130;51.728;8.748;2023-05-23T08:03:50;100550.47;;;11.60;100.00
34925;BME280;21130;51.728;8.748;2023-05-23T08:06:16;100553.66;;;11.52;100.00
34925;BME280;21130;51.728;8.748;2023-05-23T08:08:42;100553.66;;;11.52;100.00
34925;BME280;21130;51.728;8.748;2023-05-23T08:11:09;100557.03;;;11.54;100.00
34925;BME280;21130;51.728;8.748;2023-05-23T08:13:35;100565.38;;;11.54;100.00
34925;BME280;21130;51.728;8.748;2023-05-23T08:16:02;100563.34;;;11.49;100.00
34925;BME280;21130;51.728;8.748;2023-05-23T08:18:30;100569.06;;;11.42;100.00
34925;BME280;21130;51.728;8.748;2023-05-23T08:20:56;100568.44;;;11.40;100.00
34925;BME280;21130;51.728;8.748;2023-05-23T08:23:23;100589.16;;;11.33;100.00
34925;BME280;21130;51.728;8.748;2023-05-23T08:25:50;100596.50;;;11.39;100.00
34925;BME280;21130;51.728;8.748;2023-05-23T08:28:16;100586.38;;;11.33;100.00
34925;BME280;21130;51.728;8.748;2023-05-23T08:30:43;100590.09;;;11.38;100.00
34925;BME280;21130;51.728;8.748;2023-05-23T08:33:09;100586.84;;;11.41;100.00
34925;BME280;21130;51.728;8.748;2023-05-23T08:35:38;100596.34;;;11.45;100.00
34925;BME280;21130;51.728;8.748;2023-05-23T08:38:06;100591.88;;;11.44;100.00
34925;BME280;21130;51.728;8.748;2023-05-23T08:40:33;100598.13;;;11.52;100.00
34925;BME280;21130;51.728;8.748;2023-05-23T08:43:01;100592.22;;;11.48;100.00
34925;BME280;21130;51.728;8.748;2023-05-23T08:45:27;100597.31;;;11.51;100.00
34925;BME280;21130;51.728;8.748;2023-05-23T08:47:55;100608.41;;;11.51;100.00
34925;BME280;21130;51.728;8.748;2023-05-23T08:50:22;100603.78;;;11.57;100.00
34925;BME280;21130;51.728;8.748;2023-05-23T08:52:54;100611.94;;;11.46;100.00
34925;BME280;21130;51.728;8.748;2023-05-23T08:55:21;100613.28;;;11.44;100.00
34925;BME280;21130;51.728;8.748;2023-05-23T08:57:49;100617.13;;;11.43;100.00
34925;BME280;21130;51.728;8.748;2023-05-23T09:00:16;100612.69;;;11.42;100.00
34925;BME280;21130;51.728;8.748;2023-05-23T09:02:44;100620.19;;;11.41;100.00
34925;BME280;21130;51.728;8.748;2023-05-23T09:05:11;100622.56;;;11.50;100.00
34925;BME280;21130;51.728;8.748;2023-05-23T09:07:38;100637.75;;;11.59;100.00
34925;BME280;21130;51.728;8.748;2023-05-23T09:10:08;100633.25;;;11.58;100.00
34925;BME280;21130;51.728;8.748;2023-05-23T09:12:36;100629.78;;;11.51;100.00
34925;BME280;21130;51.728;8.748;2023-05-23T09:15:03;100641.78;;;11.51;100.00
34925;BME280;21130;51.728;8.748;2023-05-23T09:17:30;100646.31;;;11.57;100.00
34925;BME280;21130;51.728;8.748;2023-05-23T09:19:56;100650.41;;;11.66;100.00
34925;BME280;21130;51.728;8.748;2023-05-23T09:22:24;100654.66;;;11.57;100.00
34925;BME280;21130;51.728;8.748;2023-05-23T09:24:52;100650.44;;;11.55;100.00
34925;BME280;21130;51.728;8.748;2023-05-23T09:27:20;100667.53;;;11.46;100.00
34925;BME280;21130;51.728;8.748;2023-05-23T09:29:48;100657.88;;;11.37;100.00
34925;BME280;21130;51.728;8.748;2023-05-23T09:32:16;100666.44;;;11.36;100.00
34925;BME280;21130;51.728;8.748;2023-05-23T09:34:54;100676.22;;;11.38;100.00
34925;BME280;21130;51.728;8.748;2023-05-23T09:37:21;100676.22;;;11.38;100.00
34925;BME280;21130;51.728;8.748;2023-05-23T09:39:49;100672.72;;;11.43;100.00
34925;BME280;21130;51.728;8.748;2023-05-23T09:42:20;100671.28;;;11.40;100.00
34925;BME280;21130;51.728;8.748;2023-05-23T09:44:48;100674.75;;;11.48;100.00
34925;BME280;21130;51.728;8.748;2023-05-23T09:47:14;100680.22;;;11.42;100.00
34925;BME280;21130;51.728;8.748;2023-05-23T09:49:42;100677.44;;;11.42;100.00
34925;BME280;21130;51.728;8.748;2023-05-23T09:52:09;100674.06;;;11.40;100.00
34925;BME280;21130;51.728;8.748;2023-05-23T09:54:35;100676.22;;;11.38;100.00
34925;BME280;21130;51.728;8.748;2023-05-23T09:57:02;100684.81;;;11.37;100.00
34925;BME280;21130;51.728;8.748;2023-05-23T09:59:34;100681.31;;;11.41;100.00
34925;BME280;21130;51.728;8.748;2023-05-23T10:02:05;100689.25;;;11.50;100.00
34925;BME280;21130;51.728;8.748;2023-05-23T10:04:34;100688.84;;;11.58;100.00
34925;BME280;21130;51.728;8.748;2023-05-23T10:07:04;100688.03;;;11.57;100.00
34925;BME280;21130;51.728;8.748;2023-05-23T10:09:35;100693.38;;;11.47;100.00
34925;BME280;21130;51.728;8.748;2023-05-23T10:15:13;100699.34;;;11.27;100.00
34925;BME280;21130;51.728;8.748;2023-05-23T10:17:51;100701.03;;;11.28;100.00
34925;BME280;21130;51.728;8.748;2023-05-23T10:20:22;100705.75;;;11.28;100.00
34925;BME280;21130;51.728;8.748;2023-05-23T10:23:10;100699.13;;;11.29;100.00
34925;BME280;21130;51.728;8.748;2023-05-23T10:25:55;100712.41;;;11.15;100.00
34925;BME280;21130;51.728;8.748;2023-05-23T10:28:22;100718.69;;;11.22;100.00
34925;BME280;21130;51.728;8.748;2023-05-23T10:30:50;100720.50;;;11.16;100.00
34925;BME280;21130;51.728;8.748;2023-05-23T10:33:17;100730.19;;;11.14;100.00
34925;BME280;21130;51.728;8.748;2023-05-23T10:35:49;100733.66;;;11.21;100.00
34925;BME280;21130;51.728;8.748;2023-05-23T10:38:28;100717.47;;;11.18;100.00
34925;BME280;21130;51.728;8.748;2023-05-23T10:41:01;100713.72;;;11.24;100.00
34925;BME280;21130;51.728;8.748;2023-05-23T10:43:41;100726.41;;;11.20;100.00
34925;BME280;21130;51.728;8.748;2023-05-23T10:46:12;100734.03;;;11.13;100.00
34925;BME280;21130;51.728;8.748;2023-05-23T10:48:40;100739.56;;;11.13;100.00
34925;BME280;21130;51.728;8.748;2023-05-23T10:51:08;100736.47;;;11.09;100.00
34925;BME280;21130;51.728;8.748;2023-05-23T10:53:38;100737.66;;;11.01;100.00
34925;BME280;21130;51.728;8.748;2023-05-23T10:56:05;100748.66;;;10.96;100.00
34925;BME280;21130;51.728;8.748;2023-05-23T10:58:33;100743.81;;;10.92;100.00
34925;BME280;21130;51.728;8.748;2023-05-23T11:01:05;100751.44;;;10.96;100.00
34925;BME280;21130;51.728;8.748;2023-05-23T11:03:34;100759.03;;;10.89;100.00
34925;BME280;21130;51.728;8.748;2023-05-23T11:06:00;100767.09;;;10.91;100.00
34925;BME280;21130;51.728;8.748;2023-05-23T11:08:35;100770.75;;;10.91;100.00
34925;BME280;21130;51.728;8.748;2023-05-23T11:11:03;100775.69;;;10.89;100.00
34925;BME280;21130;51.728;8.748;2023-05-23T11:13:57;100772.09;;;10.89;100.00
34925;BME280;21130;51.728;8.748;2023-05-23T11:16:28;100772.69;;;11.02;100.00
34925;BME280;21130;51.728;8.748;2023-05-23T11:19:21;100766.88;;;10.92;100.00
34925;BME280;21130;51.728;8.748;2023-05-23T11:21:52;100776.88;;;10.93;100.00
34925;BME280;21130;51.728;8.748;2023-05-23T11:24:19;100776.75;;;10.88;100.00
34925;BME280;21130;51.728;8.748;2023-05-23T11:26:51;100786.78;;;10.77;100.00
34925;BME280;21130;51.728;8.748;2023-05-23T11:29:19;100791.38;;;10.72;100.00
34925;BME280;21130;51.728;8.748;2023-05-23T11:31:46;100788.34;;;10.62;100.00
34925;BME280;21130;51.728;8.748;2023-05-23T11:34:12;100796.19;;;10.65;100.00
34925;BME280;21130;51.728;8.748;2023-05-23T11:36:40;100795.91;;;10.54;100.00
34925;BME280;21130;51.728;8.748;2023-05-23T11:39:07;100810.06;;;10.65;100.00
34925;BME280;21130;51.728;8.748;2023-05-23T11:41:34;100812.34;;;10.56;100.00
34925;BME280;21130;51.728;8.748;2023-05-23T11:44:00;100808.59;;;10.62;100.00
34925;BME280;21130;51.728;8.748;2023-05-23T11:46:27;100809.97;;;10.71;100.00
34925;BME280;21130;51.728;8.748;2023-05-23T11:48:53;100812.59;;;10.66;100.00
34925;BME280;21130;51.728;8.748;2023-05-23T11:51:20;100811.03;;;10.70;100.00
34925;BME280;21130;51.728;8.748;2023-05-23T11:53:48;100811.91;;;10.82;100.00
34925;BME280;21130;51.728;8.748;2023-05-23T11:56:15;100813.97;;;10.87;100.00
34925;BME280;21130;51.728;8.748;2023-05-23T11:58:42;100813.50;;;11.02;100.00
34925;BME280;21130;51.728;8.748;2023-05-23T12:01:10;100812.78;;;11.30;100.00
34925;BME280;21130;51.728;8.748;2023-05-23T12:03:44;100811.66;;;11.43;100.00
34925;BME280;21130;51.728;8.748;2023-05-23T12:06:13;100809.69;;;11.91;100.00
34925;BME280;21130;51.728;8.748;2023-05-23T12:08:40;100803.84;;;12.32;100.00
34925;BME280;21130;51.728;8.748;2023-05-23T12:11:09;100802.53;;;12.69;100.00
34925;BME280;21130;51.728;8.748;2023-05-23T12:13:36;100792.94;;;12.93;100.00
34925;BME280;21130;51.728;8.748;2023-05-23T12:16:03;100800.97;;;12.90;100.00
34925;BME280;21130;51.728;8.748;2023-05-23T12:18:31;100800.91;;;13.57;100.00
34925;BME280;21130;51.728;8.748;2023-05-23T12:20:58;100795.47;;;13.68;100.00
34925;BME280;21130;51.728;8.748;2023-05-23T12:23:27;100793.81;;;13.72;100.00
34925;BME280;21130;51.728;8.748;2023-05-23T12:25:55;100800.25;;;13.50;100.00
34925;BME280;21130;51.728;8.748;2023-05-23T12:28:44;100798.84;;;13.70;100.00
34925;BME280;21130;51.728;8.748;2023-05-23T12:31:28;100805.13;;;13.26;100.00
34925;BME280;21130;51.728;8.748;2023-05-23T12:34:13;100802.88;;;13.06;100.00
34925;BME280;21130;51.728;8.748;2023-05-23T12:36:58;100807.03;;;12.87;100.00
34925;BME280;21130;51.728;8.748;2023-05-23T12:39:27;100810.97;;;12.57;100.00
34925;BME280;21130;51.728;8.748;2023-05-23T12:41:55;100816.22;;;12.70;100.00
34925;BME280;21130;51.728;8.748;2023-05-23T12:44:29;100815.06;;;12.38;100.00
34925;BME280;21130;51.728;8.748;2023-05-23T12:46:55;100822.03;;;12.52;100.00
34925;BME280;21130;51.728;8.748;2023-05-23T12:49:22;100824.31;;;12.55;100.00